Time;durP1;ratioP1;P1;durP2;ratioP2;P2;SDS_P1;SDS_P2;PMS_P1;PMS_P2;Temp;Humidity;BMP_temperature;BMP_pressure;BME280_temperature;BME280_humidity;BME280_pressure;Samples;Min_cycle;Max_cycle;Signal;HPM_P1;HPM_P2
2021/05/18 00:00:33;;;;;;;0.00;0.00;;;11.60;99.90;;;;;;5074609;28;20115;-56
2021/05/18 00:02:59;;;;;;;0.00;0.00;;;11.60;99.90;;;;;;5089575;27;20344;-56
2021/05/18 00:05:29;;;;;;;0.00;0.00;;;11.60;99.90;;;;;;5073339;28;20063;-56
2021/05/18 00:08:00;;;;;;;0.10;0.10;;;11.60;99.90;;;;;;5074245;28;20530;-56
2021/05/18 00:13:14;;;;;;;0.00;0.00;;;11.50;99.90;;;;;;5073996;28;20131;-56
2021/05/18 00:15:44;;;;;;;0.00;0.00;;;11.50;99.90;;;;;;5074989;28;20040;-56
2021/05/18 00:18:12;;;;;;;0.00;0.00;;;11.50;99.90;;;;;;5073028;28;20040;-56
2021/05/18 00:20:38;;;;;;;0.00;0.00;;;11.50;99.90;;;;;;5072792;28;20036;-56
2021/05/18 00:23:06;;;;;;;0.00;0.00;;;11.50;99.90;;;;;;5059671;28;20048;-56
2021/05/18 00:25:34;;;;;;;0.00;0.00;;;11.40;99.90;;;;;;5074489;28;20450;-57
2021/05/18 00:28:02;;;;;;;0.00;0.00;;;11.40;99.90;;;;;;5063928;28;20040;-57
2021/05/18 00:30:28;;;;;;;0.00;0.00;;;11.50;99.90;;;;;;5073362;28;20031;-57
2021/05/18 00:32:56;;;;;;;0.00;0.00;;;11.40;99.90;;;;;;5072640;28;20051;-56
2021/05/18 00:35:24;;;;;;;0.00;0.00;;;11.50;99.90;;;;;;5072848;28;20032;-56
2021/05/18 00:37:50;;;;;;;0.00;0.00;;;11.50;99.90;;;;;;5059516;28;20372;-56
2021/05/18 00:40:18;;;;;;;0.00;0.00;;;11.60;99.90;;;;;;5063508;28;20055;-57
2021/05/18 00:42:49;;;;;;;0.00;0.00;;;11.60;99.90;;;;;;5057756;28;20073;-56
2021/05/18 00:45:17;;;;;;;0.00;0.00;;;11.50;99.90;;;;;;5088868;27;20028;-57
2021/05/18 00:47:43;;;;;;;0.00;0.00;;;11.50;99.90;;;;;;5073163;28;20028;-56
2021/05/18 00:50:10;;;;;;;0.00;0.00;;;11.50;99.90;;;;;;5058520;28;20116;-56
2021/05/18 00:52:39;;;;;;;0.00;0.00;;;11.50;99.90;;;;;;5057076;28;20033;-56
2021/05/18 00:55:07;;;;;;;0.00;0.00;;;11.40;99.90;;;;;;5072374;28;20515;-56
2021/05/18 01:00:23;;;;;;;0.10;0.10;;;11.40;99.90;;;;;;5071998;28;20047;-56
2021/05/18 01:02:49;;;;;;;0.00;0.00;;;11.40;99.90;;;;;;5072435;28;20020;-56
2021/05/18 01:05:19;;;;;;;0.00;0.00;;;11.50;99.90;;;;;;5073444;28;20029;-56
2021/05/18 01:07:49;;;;;;;0.00;0.00;;;11.50;99.90;;;;;;5073112;28;20097;-56
2021/05/18 01:10:19;;;;;;;0.10;0.10;;;11.40;99.90;;;;;;5063856;28;20081;-56
2021/05/18 01:12:44;;;;;;;0.00;0.00;;;11.40;99.90;;;;;;5072011;28;20032;-56
2021/05/18 01:15:11;;;;;;;0.10;0.10;;;11.40;99.90;;;;;;5072140;28;20482;-56
2021/05/18 01:17:42;;;;;;;0.00;0.00;;;11.40;99.90;;;;;;5058223;28;20123;-56
2021/05/18 01:20:10;;;;;;;0.00;0.00;;;11.30;99.90;;;;;;5072173;28;20036;-56
2021/05/18 01:22:36;;;;;;;0.00;0.00;;;11.30;99.90;;;;;;5072318;28;20028;-56
2021/05/18 01:25:03;;;;;;;0.00;0.00;;;11.30;99.90;;;;;;5072524;28;20621;-56
2021/05/18 01:27:30;;;;;;;0.00;0.00;;;11.30;99.90;;;;;;5072475;28;20117;-56
2021/05/18 01:29:56;;;;;;;0.00;0.00;;;11.30;99.90;;;;;;5072237;28;20116;-56
2021/05/18 01:32:25;;;;;;;0.00;0.00;;;11.30;99.90;;;;;;5072918;28;20097;-56
2021/05/18 01:34:51;;;;;;;0.10;0.10;;;11.30;99.90;;;;;;5087910;27;20031;-56
2021/05/18 01:37:19;;;;;;;0.00;0.00;;;11.30;99.90;;;;;;5071145;28;20070;-56
2021/05/18 01:39:56;;;;;;;0.00;0.00;;;11.30;99.90;;;;;;5071492;28;20876;-56
2021/05/18 01:45:09;;;;;;;4.80;4.53;;;11.30;99.90;;;;;;5071823;28;20467;-56
2021/05/18 01:47:37;;;;;;;0.10;0.10;;;11.40;99.90;;;;;;5053902;28;20054;-56
2021/05/18 01:50:04;;;;;;;0.00;0.00;;;11.30;99.90;;;;;;5073210;28;20069;-56
2021/05/18 01:52:29;;;;;;;0.00;0.00;;;11.30;99.90;;;;;;5061768;28;20024;-55
2021/05/18 01:54:55;;;;;;;0.17;0.17;;;11.30;99.90;;;;;;5070028;28;20036;-57
2021/05/18 01:57:25;;;;;;;0.10;0.10;;;11.30;99.90;;;;;;5087073;28;20024;-55
2021/05/18 01:59:52;;;;;;;0.00;0.00;;;11.30;99.90;;;;;;5062301;28;20448;-55
2021/05/18 02:02:20;;;;;;;0.00;0.00;;;11.20;99.90;;;;;;5071662;28;20020;-56
2021/05/18 02:05:02;;;;;;;0.00;0.00;;;11.20;99.90;;;;;;5071186;28;20031;-56
2021/05/18 02:07:33;;;;;;;0.00;0.00;;;11.10;99.90;;;;;;5071176;28;20032;-55
2021/05/18 02:10:02;;;;;;;0.00;0.00;;;11.10;99.90;;;;;;5087873;28;20106;-55
2021/05/18 02:12:27;;;;;;;0.00;0.00;;;11.10;99.90;;;;;;5070875;28;20036;-55
2021/05/18 02:15:02;;;;;;;0.00;0.00;;;11.00;99.90;;;;;;5053738;28;20101;-55
2021/05/18 02:17:44;;;;;;;0.00;0.00;;;11.00;99.90;;;;;;5071538;28;20030;-56
2021/05/18 02:20:35;;;;;;;0.10;0.10;;;11.00;99.90;;;;;;5071178;28;20035;-55
2021/05/18 02:25:45;;;;;;;0.07;0.07;;;11.00;99.90;;;;;;5071875;28;20062;-58
2021/05/18 02:28:13;;;;;;;0.00;0.00;;;11.00;99.90;;;;;;5072638;28;20032;-56
2021/05/18 02:30:39;;;;;;;0.00;0.00;;;11.00;99.90;;;;;;5070783;28;20032;-56
2021/05/18 02:33:05;;;;;;;0.00;0.00;;;11.00;99.90;;;;;;5071864;28;20050;-56
2021/05/18 02:35:32;;;;;;;0.00;0.00;;;;;;;;;;5070865;28;20469;-56
2021/05/18 02:37:59;;;;;;;0.00;0.00;;;11.10;99.90;;;;;;5069697;28;20360;-55
2021/05/18 02:40:30;;;;;;;0.00;0.00;;;11.10;99.90;;;;;;5070600;28;20037;-56
2021/05/18 02:42:56;;;;;;;0.00;0.00;;;11.10;99.90;;;;;;5070824;28;20032;-56
2021/05/18 02:45:36;;;;;;;0.00;0.00;;;11.10;99.90;;;;;;5071386;28;20035;-57
2021/05/18 02:50:49;;;;;;;0.00;0.00;;;11.20;99.90;;;;;;5070769;28;20117;-56
2021/05/18 02:53:14;;;;;;;0.00;0.00;;;11.30;99.90;;;;;;5056076;28;20721;-56
2021/05/18 02:58:11;;;;;;;0.00;0.00;;;11.30;99.90;;;;;;5070202;28;20131;-56
2021/05/18 03:00:38;;;;;;;0.00;0.00;;;11.30;99.90;;;;;;5057516;28;20070;-56
2021/05/18 03:03:04;;;;;;;0.00;0.00;;;11.30;99.90;;;;;;5087293;28;20028;-56
2021/05/18 03:05:33;;;;;;;0.03;0.03;;;11.30;99.90;;;;;;5071445;28;20036;-56
2021/05/18 03:08:04;;;;;;;0.07;0.07;;;11.30;99.90;;;;;;5070272;28;20083;-55
2021/05/18 03:10:30;;;;;;;0.00;0.00;;;11.30;99.90;;;;;;5069968;28;20474;-56
2021/05/18 03:12:56;;;;;;;0.00;0.00;;;11.40;99.90;;;;;;5071252;28;20047;-56
2021/05/18 03:15:24;;;;;;;0.10;0.10;;;11.30;99.90;;;;;;5071112;28;20031;-55
2021/05/18 03:17:50;;;;;;;0.00;0.00;;;11.40;99.90;;;;;;5071082;28;20127;-56
2021/05/18 03:20:20;;;;;;;0.00;0.00;;;11.30;99.90;;;;;;5071481;28;20036;-55
2021/05/18 03:22:48;;;;;;;0.00;0.00;;;11.30;99.90;;;;;;5087593;27;20039;-55
2021/05/18 03:25:16;;;;;;;0.00;0.00;;;11.30;99.90;;;;;;5058869;28;20031;-56
2021/05/18 03:27:42;;;;;;;0.00;0.00;;;11.40;99.90;;;;;;5074493;28;20584;-58
2021/05/18 03:35:33;;;;;;;0.00;0.00;;;11.30;99.90;;;;;;5074638;28;20571;-56
2021/05/18 03:38:02;;;;;;;0.00;0.00;;;11.30;99.90;;;;;;5064793;28;20032;-56
2021/05/18 03:40:30;;;;;;;0.00;0.00;;;11.30;99.90;;;;;;5074150;28;20057;-56
2021/05/18 03:45:53;;;;;;;0.00;0.00;;;11.30;99.90;;;;;;5046759;28;20155;-56
2021/05/18 03:54:01;;;;;;;0.00;0.00;;;11.30;99.90;;;;;;5075017;28;20136;-56
2021/05/18 04:05:13;;;;;;;0.00;0.00;;;11.20;99.90;;;;;;5073505;28;20489;-56
2021/05/18 04:12:53;;;;;;;0.00;0.00;;;11.20;99.90;;;;;;5073113;28;20028;-56
2021/05/18 04:18:14;;;;;;;0.00;0.00;;;11.30;99.90;;;;;;5038574;28;20044;-56
2021/05/18 04:21:01;;;;;;;;;;;11.30;99.90;;;;;;5073897;28;20440;-56
2021/05/18 04:27:05;;;;;;;0.00;0.00;;;11.40;99.90;;;;;;5060130;28;20044;-56
2021/05/18 05:04:15;;;;;;;0.00;0.00;;;11.50;99.90;;;;;;5072241;28;20110;-56
2021/05/18 05:06:53;;;;;;;0.00;0.00;;;11.50;99.90;;;;;;5071956;28;20109;-56
2021/05/18 05:14:31;;;;;;;0.10;0.10;;;11.60;99.90;;;;;;5072098;28;20086;-57
2021/05/18 05:16:59;;;;;;;0.00;0.00;;;11.60;99.90;;;;;;5072576;28;20031;-56
2021/05/18 05:19:29;;;;;;;0.00;0.00;;;11.60;99.90;;;;;;5057393;28;20037;-57
2021/05/18 05:21:56;;;;;;;0.00;0.00;;;11.60;99.90;;;;;;5071950;28;20060;-57
2021/05/18 05:24:22;;;;;;;0.00;0.00;;;11.60;99.90;;;;;;5071807;28;20024;-57
2021/05/18 05:26:50;;;;;;;0.00;0.00;;;11.60;99.90;;;;;;5073055;28;20043;-57
2021/05/18 05:29:17;;;;;;;0.00;0.00;;;11.60;99.90;;;;;;5071384;28;20372;-56
2021/05/18 05:31:44;;;;;;;0.00;0.00;;;11.60;99.90;;;;;;5072328;28;20342;-57
2021/05/18 05:34:12;;;;;;;0.10;0.10;;;11.80;99.90;;;;;;5087018;27;20036;-56
2021/05/18 05:36:40;;;;;;;0.00;0.00;;;11.90;99.90;;;;;;5070269;28;20032;-57
2021/05/18 05:39:10;;;;;;;0.00;0.00;;;11.90;99.90;;;;;;5087697;27;20059;-57
2021/05/18 05:41:36;;;;;;;0.10;0.10;;;12.00;99.90;;;;;;5071024;28;20050;-57
2021/05/18 05:44:05;;;;;;;0.00;0.00;;;12.10;99.90;;;;;;5087132;27;20028;-58
2021/05/18 05:46:32;;;;;;;0.00;0.00;;;12.00;99.90;;;;;;5071022;28;20465;-57
2021/05/18 05:48:58;;;;;;;0.00;0.00;;;12.10;99.90;;;;;;5072409;28;20039;-56
2021/05/18 05:51:26;;;;;;;0.00;0.00;;;12.10;99.90;;;;;;5070851;28;20028;-56
2021/05/18 05:53:53;;;;;;;0.00;0.00;;;12.00;99.90;;;;;;5072081;28;22014;-56
2021/05/18 05:56:19;;;;;;;0.00;0.00;;;11.80;99.90;;;;;;5053335;28;20684;-56
2021/05/18 05:58:48;;;;;;;0.07;0.07;;;11.70;99.90;;;;;;5071990;28;20040;-55
2021/05/18 06:01:15;;;;;;;0.00;0.00;;;11.60;99.90;;;;;;5070850;28;20049;-56
2021/05/18 06:03:42;;;;;;;0.07;0.07;;;11.30;99.90;;;;;;5061694;28;20039;-56
2021/05/18 06:06:08;;;;;;;0.03;0.03;;;11.00;99.90;;;;;;5071268;28;20146;-57
2021/05/18 06:08:39;;;;;;;0.10;0.10;;;10.70;99.90;;;;;;5061574;28;20734;-61
2021/05/18 06:14:04;;;;;;;0.00;0.00;;;10.50;99.90;;;;;;5032724;28;20036;-71
2021/05/18 06:48:32;;;;;;;0.00;0.00;;;10.40;99.90;;;;;;5071079;28;20036;-65
2021/05/18 06:51:00;;;;;;;0.00;0.00;;;10.40;99.90;;;;;;5055941;28;20040;-63
2021/05/18 06:53:31;;;;;;;0.10;0.10;;;10.50;99.90;;;;;;5055700;28;20638;-66
2021/05/18 06:55:58;;;;;;;0.00;0.00;;;10.50;99.90;;;;;;5070592;28;20738;-64
2021/05/18 06:58:45;;;;;;;0.00;0.00;;;10.60;99.90;;;;;;5059388;28;20392;-63
2021/05/18 07:01:10;;;;;;;0.00;0.00;;;10.50;99.90;;;;;;5075462;28;20662;-64
2021/05/18 07:03:47;;;;;;;0.10;0.10;;;10.60;99.90;;;;;;5074747;28;20124;-63
2021/05/18 07:11:21;;;;;;;0.00;0.00;;;10.70;99.90;;;;;;5075058;28;20032;-65
2021/05/18 07:13:49;;;;;;;0.00;0.00;;;10.70;99.90;;;;;;5075229;28;20039;-64
2021/05/18 07:16:15;;;;;;;0.00;0.00;;;10.80;99.90;;;;;;5074143;28;20035;-65
2021/05/18 07:18:40;;;;;;;0.00;0.00;;;10.90;99.90;;;;;;5074719;28;20365;-68
2021/05/18 07:21:06;;;;;;;0.00;0.00;;;10.90;99.90;;;;;;5074996;28;20118;-71
2021/05/18 07:23:35;;;;;;;0.00;0.00;;;10.90;99.90;;;;;;5058779;28;20024;-71
2021/05/18 07:26:05;;;;;;;0.00;0.00;;;11.00;99.90;;;;;;5076001;28;20032;-72
2021/05/18 07:28:35;;;;;;;0.00;0.00;;;11.10;99.90;;;;;;5075339;28;20036;-72
2021/05/18 07:31:03;;;;;;;0.00;0.00;;;11.20;99.90;;;;;;5075640;28;20485;-72
2021/05/18 07:33:30;;;;;;;0.00;0.00;;;11.30;99.90;;;;;;5090000;27;20036;-72
2021/05/18 07:35:57;;;;;;;0.00;0.00;;;11.50;99.90;;;;;;5074467;28;20480;-74
2021/05/18 07:38:27;;;;;;;1.30;1.20;;;11.80;99.90;;;;;;5065451;28;20136;-75
2021/05/18 07:40:56;;;;;;;0.00;0.00;;;12.10;99.90;;;;;;5090821;27;20067;-78
2021/05/18 07:43:24;;;;;;;0.00;0.00;;;12.30;99.90;;;;;;5075253;28;20032;-78
2021/05/18 07:45:55;;;;;;;0.00;0.00;;;12.70;99.90;;;;;;5074083;28;20028;-74
2021/05/18 07:48:30;;;;;;;0.00;0.00;;;12.90;99.90;;;;;;5065477;28;20040;-75
2021/05/18 07:59:32;;;;;;;0.10;0.10;;;12.60;99.90;;;;;;5074007;28;20154;-70
2021/05/18 08:07:33;;;;;;;0.00;0.00;;;12.90;99.90;;;;;;5073249;28;20178;-65
2021/05/18 08:10:15;;;;;;;0.00;0.00;;;13.10;99.90;;;;;;5073510;28;20035;-65
2021/05/18 08:12:41;;;;;;;0.00;0.00;;;13.30;99.90;;;;;;5073059;28;20077;-64
2021/05/18 10:35:42;;;;;;;0.00;0.00;;;14.70;99.90;;;;;;5075537;28;20052;-55
2021/05/18 10:38:20;;;;;;;0.00;0.00;;;14.60;99.90;;;;;;5059569;28;20040;-56
2021/05/18 10:40:48;;;;;;;0.00;0.00;;;14.30;99.90;;;;;;5074536;28;20403;-56
2021/05/18 10:43:23;;;;;;;0.00;0.00;;;14.10;99.90;;;;;;5061577;28;20028;-56
2021/05/18 10:45:55;;;;;;;0.00;0.00;;;14.30;99.90;;;;;;5057033;28;20399;-56
2021/05/18 10:48:53;;;;;;;0.00;0.00;;;14.50;99.90;;;;;;5075566;28;20338;-57
2021/05/18 10:51:34;;;;;;;0.00;0.00;;;14.40;99.90;;;;;;5067068;28;20869;-55
2021/05/18 10:54:21;;;;;;;0.00;0.00;;;14.30;99.90;;;;;;5074715;28;20906;-56
2021/05/18 10:56:59;;;;;;;0.00;0.00;;;14.40;99.90;;;;;;5075442;28;21556;-56
2021/05/18 10:59:26;;;;;;;0.00;0.00;;;14.70;99.90;;;;;;5074693;28;20040;-56
2021/05/18 11:02:00;;;;;;;0.00;0.00;;;14.80;99.90;;;;;;5074525;28;20028;-57
2021/05/18 11:04:27;;;;;;;0.00;0.00;;;14.90;99.90;;;;;;5074650;28;20032;-56
2021/05/18 11:07:04;;;;;;;0.00;0.00;;;15.00;99.90;;;;;;5074783;28;20024;-56
2021/05/18 11:09:31;;;;;;;0.00;0.00;;;15.10;99.90;;;;;;5065608;28;20042;-56
2021/05/18 11:12:04;;;;;;;0.00;0.00;;;15.00;99.90;;;;;;5073922;28;20116;-56
2021/05/18 11:14:51;;;;;;;0.23;0.23;;;15.40;99.90;;;;;;5073732;28;20031;-55
2021/05/18 11:17:25;;;;;;;0.00;0.00;;;15.50;99.90;;;;;;5061668;28;20033;-55
2021/05/18 11:20:20;;;;;;;0.00;0.00;;;15.70;99.90;;;;;;5073999;28;20063;-56
2021/05/18 11:25:33;;;;;;;0.00;0.00;;;16.10;99.90;;;;;;5074897;28;20035;-56
2021/05/18 11:28:32;;;;;;;0.00;0.00;;;15.80;99.90;;;;;;5089350;27;20051;-56
2021/05/18 11:31:00;;;;;;;0.10;0.10;;;15.30;99.90;;;;;;5041618;28;20248;-55
2021/05/18 11:33:51;;;;;;;0.00;0.00;;;15.20;99.90;;;;;;5073960;28;20028;-55
2021/05/18 11:36:23;;;;;;;0.00;0.00;;;15.40;99.90;;;;;;5046805;28;20046;-56
2021/05/18 11:39:14;;;;;;;0.00;0.00;;;15.60;99.90;;;;;;5074951;28;20032;-56
2021/05/18 11:41:42;;;;;;;0.00;0.00;;;16.00;99.90;;;;;;5074798;28;20046;-56
2021/05/18 11:44:14;;;;;;;0.10;0.10;;;16.20;99.40;;;;;;5074048;28;20123;-56
2021/05/18 11:46:45;;;;;;;0.00;0.00;;;16.70;99.50;;;;;;5064704;28;20024;-57
2021/05/18 11:49:13;;;;;;;0.05;0.05;;;16.90;97.00;;;;;;5073215;28;20029;-56
2021/05/18 11:51:47;;;;;;;0.05;0.05;;;17.10;95.80;;;;;;5057209;28;20024;-56
2021/05/18 11:54:18;;;;;;;0.00;0.00;;;17.00;95.40;;;;;;5090263;27;20033;-56
2021/05/18 11:56:44;;;;;;;0.00;0.00;;;17.30;94.90;;;;;;5073746;28;20023;-56
2021/05/18 11:59:17;;;;;;;0.08;0.08;;;17.40;95.60;;;;;;5073359;28;20040;-56
2021/05/18 12:01:43;;;;;;;0.00;0.00;;;17.50;94.60;;;;;;5073336;28;20035;-56
2021/05/18 12:04:16;;;;;;;0.10;0.10;;;16.80;95.20;;;;;;5059524;28;20028;-56
2021/05/18 12:07:12;;;;;;;0.00;0.00;;;16.10;97.30;;;;;;5073461;28;20071;-56
2021/05/18 12:09:47;;;;;;;0.10;0.10;;;15.70;99.20;;;;;;5073795;28;20042;-56
2021/05/18 12:12:15;;;;;;;0.10;0.10;;;15.70;99.70;;;;;;5073134;28;20437;-57
2021/05/18 12:14:51;;;;;;;0.10;0.10;;;15.90;97.90;;;;;;5073217;28;20153;-56
2021/05/18 12:17:27;;;;;;;0.00;0.00;;;17.00;96.20;;;;;;5073786;28;20527;-56
2021/05/18 12:19:52;;;;;;;0.00;0.00;;;18.90;92.70;;;;;;5073926;28;20028;-58
2021/05/18 12:22:18;;;;;;;0.00;0.00;;;20.00;90.10;;;;;;5073777;28;20054;-57
2021/05/18 12:24:46;;;;;;;0.00;0.00;;;20.20;80.00;;;;;;5072972;28;20358;-57
2021/05/18 12:27:14;;;;;;;0.00;0.00;;;21.30;72.20;;;;;;5072809;28;20039;-57
2021/05/18 12:29:53;;;;;;;0.00;0.00;;;21.90;69.60;;;;;;5072872;28;20522;-57
2021/05/18 12:32:44;;;;;;;0.00;0.00;;;22.70;63.50;;;;;;5072515;28;20452;-57
2021/05/18 12:35:22;;;;;;;0.00;0.00;;;22.90;62.00;;;;;;5063232;28;20051;-57
2021/05/18 12:37:54;;;;;;;0.00;0.00;;;22.70;60.70;;;;;;5071945;28;20752;-57
2021/05/18 12:40:26;;;;;;;0.00;0.00;;;22.60;61.30;;;;;;5071394;28;20047;-57
2021/05/18 12:42:56;;;;;;;0.10;0.10;;;22.80;62.90;;;;;;5073630;28;20032;-57
2021/05/18 12:45:24;;;;;;;0.00;0.00;;;22.80;57.80;;;;;;5071779;28;20119;-56
2021/05/18 12:48:00;;;;;;;0.00;0.00;;;22.60;60.50;;;;;;5072233;28;20037;-57
2021/05/18 12:50:37;;;;;;;0.00;0.00;;;23.40;58.90;;;;;;5072533;28;20082;-57
2021/05/18 12:53:03;;;;;;;0.00;0.00;;;24.00;56.60;;;;;;5052238;28;20535;-57
2021/05/18 12:55:31;;;;;;;0.10;0.10;;;24.00;54.60;;;;;;5088080;27;20067;-57
2021/05/18 12:58:06;;;;;;;0.00;0.00;;;23.40;55.90;;;;;;5072242;28;20119;-57
2021/05/18 13:00:42;;;;;;;0.00;0.00;;;22.10;59.40;;;;;;5088834;27;20128;-57
2021/05/18 13:03:27;;;;;;;0.00;0.00;;;19.90;65.00;;;;;;5051967;28;20032;-57
2021/05/18 13:05:55;;;;;;;0.00;0.00;;;22.20;60.00;;;;;;5069701;28;20032;-57
2021/05/18 13:08:30;;;;;;;0.00;0.00;;;21.90;56.70;;;;;;5071731;28;20138;-57
2021/05/18 13:11:18;;;;;;;0.00;0.00;;;23.10;57.10;;;;;;5072499;28;20115;-58
2021/05/18 13:13:44;;;;;;;0.00;0.00;;;24.90;49.80;;;;;;5072190;28;20123;-57
2021/05/18 13:16:15;;;;;;;0.10;0.10;;;;;;;;;;5056797;28;20170;-57
2021/05/18 13:18:50;;;;;;;0.00;0.00;;;26.90;45.40;;;;;;5071619;28;20036;-57
2021/05/18 13:21:28;;;;;;;0.00;0.00;;;24.90;48.20;;;;;;5072359;28;20987;-57
2021/05/18 13:24:11;;;;;;;0.00;0.00;;;23.20;50.40;;;;;;5071420;28;20039;-56
2021/05/18 13:26:38;;;;;;;0.00;0.00;;;21.10;56.00;;;;;;5071065;28;20044;-56
2021/05/18 13:29:16;;;;;;;0.00;0.00;;;19.50;62.80;;;;;;5072188;28;20097;-56
2021/05/18 13:31:45;;;;;;;0.05;0.05;;;18.10;78.70;;;;;;5071221;28;20454;-56
2021/05/18 13:34:15;;;;;;;0.10;0.10;;;17.30;76.90;;;;;;5070662;28;20067;-56
2021/05/18 13:36:44;;;;;;;0.00;0.00;;;17.00;83.40;;;;;;5071393;28;20883;-56
2021/05/18 13:39:13;;;;;;;0.00;0.00;;;16.60;88.30;;;;;;5071694;28;20464;-56
2021/05/18 13:41:39;;;;;;;0.10;0.10;;;16.50;95.10;;;;;;5071403;28;20031;-57
2021/05/18 13:44:06;;;;;;;0.10;0.10;;;16.40;94.00;;;;;;5070964;28;20726;-57
2021/05/18 13:46:32;;;;;;;0.00;0.00;;;16.60;92.40;;;;;;5054804;28;20032;-57
2021/05/18 13:49:01;;;;;;;0.00;0.00;;;17.90;92.30;;;;;;5087957;27;20051;-57
2021/05/18 13:51:26;;;;;;;0.00;0.00;;;20.30;82.10;;;;;;5055906;28;20035;-58
2021/05/18 13:53:52;;;;;;;0.00;0.00;;;22.60;68.50;;;;;;5071117;28;20042;-59
2021/05/18 13:56:23;;;;;;;0.00;0.00;;;24.30;60.50;;;;;;5072449;28;20992;-58
2021/05/18 13:58:50;;;;;;;0.00;0.00;;;26.20;59.40;;;;;;5052505;28;20041;-58
2021/05/18 14:01:17;;;;;;;0.00;0.00;;;27.40;54.30;;;;;;5071180;28;20072;-57
2021/05/18 14:03:44;;;;;;;0.00;0.00;;;28.00;45.90;;;;;;5071686;28;20043;-57
2021/05/18 14:06:11;;;;;;;0.00;0.00;;;28.30;45.90;;;;;;5050935;28;20762;-58
2021/05/18 14:08:39;;;;;;;0.00;0.00;;;27.60;43.20;;;;;;5086868;27;20898;-59
2021/05/18 14:11:20;;;;;;;0.00;0.00;;;27.40;44.00;;;;;;5057363;28;20039;-58
2021/05/18 14:13:45;;;;;;;0.00;0.00;;;27.50;46.40;;;;;;5086775;28;21910;-59
2021/05/18 14:16:15;;;;;;;0.00;0.00;;;;;;;;;;5071134;28;20086;-58
2021/05/18 14:18:43;;;;;;;0.00;0.00;;;26.80;43.90;;;;;;5072329;28;20109;-58
2021/05/18 14:21:09;;;;;;;0.00;0.00;;;25.60;45.70;;;;;;5070558;28;20036;-58
2021/05/18 14:24:11;;;;;;;0.00;0.00;;;23.30;50.50;;;;;;5070178;28;20048;-58
2021/05/18 14:26:29;;;;;;;0.00;0.00;;;22.30;55.60;;;;;;5070669;28;20430;-57
2021/05/18 14:28:57;;;;;;;0.00;0.00;;;21.50;55.70;;;;;;5070512;28;21972;-57
2021/05/18 14:31:23;;;;;;;0.00;0.00;;;21.00;56.20;;;;;;5071674;28;20045;-57
2021/05/18 14:33:49;;;;;;;0.00;0.00;;;20.10;59.50;;;;;;5071435;28;20125;-57
2021/05/18 14:36:15;;;;;;;0.00;0.00;;;19.50;62.70;;;;;;5061871;28;20024;-57
2021/05/18 14:38:43;;;;;;;0.00;0.00;;;18.70;68.60;;;;;;5071626;28;20047;-57
2021/05/18 14:56:55;;;;;;;0.00;0.00;;;15.10;99.90;;;;;;5069529;28;20031;-56
2021/05/18 14:59:21;;;;;;;0.00;0.00;;;14.40;99.90;;;;;;5050640;28;20094;-56
2021/05/18 15:01:48;;;;;;;0.07;0.07;;;14.60;99.90;;;;;;5069369;28;20127;-58
2021/05/18 15:04:14;;;;;;;0.00;0.00;;;14.40;99.90;;;;;;5057694;28;20364;-55
2021/05/18 15:06:41;;;;;;;0.00;0.00;;;14.20;99.90;;;;;;5071360;28;20029;-56
2021/05/18 15:09:07;;;;;;;0.13;0.13;;;13.90;99.90;;;;;;5062249;28;20046;-58
2021/05/18 15:11:35;;;;;;;0.00;0.00;;;13.60;99.90;;;;;;5053138;28;20035;-56
2021/05/18 15:14:01;;;;;;;0.10;0.10;;;13.50;99.90;;;;;;5070831;28;20491;-56
2021/05/18 15:16:26;;;;;;;0.00;0.00;;;13.50;99.90;;;;;;5070771;28;20157;-56
2021/05/18 15:18:54;;;;;;;0.00;0.00;;;13.50;99.90;;;;;;5071756;28;21476;-56
2021/05/18 15:21:21;;;;;;;0.00;0.00;;;13.30;99.90;;;;;;5074008;28;20086;-56
2021/05/18 15:23:47;;;;;;;0.00;0.00;;;13.30;99.90;;;;;;5075409;28;20040;-56
2021/05/18 15:26:13;;;;;;;0.00;0.00;;;13.50;99.90;;;;;;5074253;28;20032;-56
2021/05/18 15:28:43;;;;;;;0.00;0.00;;;13.50;99.90;;;;;;5074019;28;20452;-56
2021/05/18 15:31:09;;;;;;;0.00;0.00;;;13.40;99.90;;;;;;5071210;28;20360;-56
2021/05/18 15:33:35;;;;;;;0.00;0.00;;;13.40;99.90;;;;;;5074171;28;20043;-56
2021/05/18 15:36:03;;;;;;;0.00;0.00;;;13.50;99.90;;;;;;5075104;28;20032;-56
2021/05/18 15:38:30;;;;;;;0.00;0.00;;;13.60;99.90;;;;;;5073608;28;20473;-56
2021/05/18 15:40:58;;;;;;;0.00;0.00;;;13.80;99.90;;;;;;5074957;28;20028;-56
2021/05/18 15:43:24;;;;;;;0.00;0.00;;;13.90;99.90;;;;;;5060322;28;20518;-56
2021/05/18 15:45:51;;;;;;;0.00;0.00;;;14.00;99.90;;;;;;5073945;28;20033;-56
2021/05/18 15:48:19;;;;;;;0.00;0.00;;;13.90;99.90;;;;;;5059881;28;20441;-55
2021/05/18 15:50:45;;;;;;;0.00;0.00;;;14.00;99.90;;;;;;5074122;28;20479;-56
2021/05/18 15:53:12;;;;;;;0.00;0.00;;;14.00;99.90;;;;;;5074095;28;20028;-56
2021/05/18 15:55:38;;;;;;;0.00;0.00;;;14.00;99.90;;;;;;5060621;28;20047;-56
2021/05/18 15:58:08;;;;;;;0.00;0.00;;;14.10;99.90;;;;;;5053648;28;20036;-56
2021/05/18 16:00:34;;;;;;;0.00;0.00;;;14.10;99.90;;;;;;5074216;28;20071;-56
2021/05/18 16:02:59;;;;;;;0.00;0.00;;;14.20;99.90;;;;;;5064277;28;20111;-56
2021/05/18 16:05:25;;;;;;;0.00;0.00;;;14.30;99.90;;;;;;5053875;28;20046;-56
2021/05/18 16:08:04;;;;;;;0.00;0.00;;;14.30;99.90;;;;;;5073584;28;20024;-57
2021/05/18 16:10:33;;;;;;;0.00;0.00;;;14.30;99.90;;;;;;5073768;28;20044;-57
2021/05/18 16:13:01;;;;;;;0.00;0.00;;;14.50;99.90;;;;;;5058963;28;20119;-56
2021/05/18 16:15:26;;;;;;;0.00;0.00;;;14.70;99.90;;;;;;5073277;28;20036;-56
2021/05/18 16:17:54;;;;;;;0.00;0.00;;;15.20;99.90;;;;;;5073463;28;20050;-56
2021/05/18 16:20:20;;;;;;;0.00;0.00;;;15.60;99.90;;;;;;5064460;28;21850;-56
2021/05/18 16:22:46;;;;;;;0.00;0.00;;;15.80;99.90;;;;;;5059246;28;20044;-56
2021/05/18 16:25:12;;;;;;;0.00;0.00;;;15.90;99.90;;;;;;5073406;28;20028;-56
2021/05/18 16:27:38;;;;;;;0.00;0.00;;;15.80;99.90;;;;;;5063413;28;20663;-57
2021/05/18 16:30:04;;;;;;;0.00;0.00;;;15.50;99.90;;;;;;5072472;28;20042;-56
2021/05/18 16:32:30;;;;;;;0.00;0.00;;;15.40;99.90;;;;;;5073001;28;20078;-56
2021/05/18 16:34:57;;;;;;;0.00;0.00;;;15.30;99.90;;;;;;5054649;28;20126;-56
2021/05/18 16:37:23;;;;;;;0.00;0.00;;;15.20;99.90;;;;;;5072921;28;20388;-56
2021/05/18 16:39:49;;;;;;;0.00;0.00;;;15.40;99.90;;;;;;5053383;28;20039;-56
2021/05/18 16:42:19;;;;;;;0.00;0.00;;;16.50;99.90;;;;;;5063314;28;20040;-57
2021/05/18 16:44:45;;;;;;;0.00;0.00;;;17.70;99.90;;;;;;5063932;28;20032;-57
2021/05/18 16:47:10;;;;;;;0.00;0.00;;;18.60;95.50;;;;;;5072524;28;20039;-57
2021/05/18 16:49:36;;;;;;;0.10;0.10;;;19.00;92.30;;;;;;5063330;28;20169;-57
2021/05/18 16:52:03;;;;;;;0.00;0.00;;;19.90;91.00;;;;;;5054883;28;20729;-57
2021/05/18 16:54:28;;;;;;;0.00;0.00;;;20.50;85.30;;;;;;5052644;28;20047;-58
2021/05/18 16:56:55;;;;;;;0.00;0.00;;;20.90;79.60;;;;;;5062980;28;20039;-58
2021/05/18 16:59:20;;;;;;;0.00;0.00;;;20.80;79.10;;;;;;5072228;28;20047;-57
2021/05/18 17:01:48;;;;;;;0.00;0.00;;;20.70;76.90;;;;;;5071691;28;20488;-58
2021/05/18 17:04:14;;;;;;;0.00;0.00;;;20.90;78.50;;;;;;5072004;28;20079;-57
2021/05/18 17:06:43;;;;;;;0.00;0.00;;;20.30;74.70;;;;;;5072140;28;20036;-56
2021/05/18 17:09:12;;;;;;;0.08;0.08;;;19.90;85.40;;;;;;5088375;27;20039;-57
2021/05/18 17:11:43;;;;;;;0.00;0.00;;;19.30;80.60;;;;;;5071917;28;20123;-58
2021/05/18 17:14:09;;;;;;;0.00;0.00;;;19.00;81.10;;;;;;5057809;28;20033;-56
2021/05/18 17:16:35;;;;;;;0.00;0.00;;;18.40;88.70;;;;;;5063048;28;20042;-57
2021/05/18 17:19:03;;;;;;;0.10;0.10;;;18.30;93.50;;;;;;5056099;28;20036;-57
2021/05/18 17:21:29;;;;;;;0.10;0.10;;;17.80;91.50;;;;;;5058843;28;20040;-57
2021/05/18 17:23:56;;;;;;;0.10;0.10;;;;;;;;;;5072265;28;20137;-57
2021/05/18 17:26:22;;;;;;;0.00;0.00;;;;;;;;;;5058096;28;20350;-56
2021/05/18 17:28:48;;;;;;;0.00;0.00;;;16.40;99.90;;;;;;5072184;28;20460;-59
2021/05/18 17:31:18;;;;;;;0.00;0.00;;;16.20;99.90;;;;;;5062718;28;20096;-56
2021/05/18 17:33:44;;;;;;;0.00;0.00;;;16.00;99.90;;;;;;5071851;28;20054;-57
2021/05/18 17:36:10;;;;;;;0.00;0.00;;;15.90;99.90;;;;;;5058319;28;20051;-57
2021/05/18 17:38:36;;;;;;;0.10;0.10;;;15.80;99.90;;;;;;5087888;27;20068;-56
2021/05/18 17:41:03;;;;;;;0.00;0.00;;;;;;;;;;5071440;28;20819;-56
2021/05/18 17:43:31;;;;;;;0.00;0.00;;;;;;;;;;5070954;28;20514;-57
2021/05/18 17:46:00;;;;;;;0.00;0.00;;;;;;;;;;5057902;28;20029;-57
2021/05/18 17:48:26;;;;;;;0.00;0.00;;;;;;;;;;5072209;28;20024;-57
2021/05/18 17:50:52;;;;;;;0.00;0.00;;;;;;;;;;5071673;28;20494;-56
2021/05/18 17:53:18;;;;;;;0.00;0.00;;;15.20;99.90;;;;;;5051274;28;20638;-56
2021/05/18 17:55:44;;;;;;;0.00;0.00;;;15.10;99.90;;;;;;5072186;28;20036;-58
2021/05/18 17:58:13;;;;;;;0.00;0.00;;;15.30;99.90;;;;;;5072226;28;20479;-58
2021/05/18 18:00:42;;;;;;;0.00;0.00;;;15.30;99.90;;;;;;5057106;28;20044;-58
2021/05/18 18:03:10;;;;;;;0.00;0.00;;;15.40;99.90;;;;;;5087583;27;20415;-58
2021/05/18 18:05:37;;;;;;;0.00;0.00;;;15.40;99.90;;;;;;5071700;28;20020;-58